Time;durP1;ratioP1;P1;durP2;ratioP2;P2;SDS_P1;SDS_P2;PMS_P1;PMS_P2;Temp;Humidity;BMP_temperature;BMP_pressure;BME280_temperature;BME280_humidity;BME280_pressure;Samples;Min_cycle;Max_cycle;Signal;HPM_P1;HPM_P2
2023/10/23 00:00:52;;;;;;;6.85;3.03;;;13.10;99.90;;;13.53;78.83;100260.81;5097563;28;20044;-83
2023/10/23 00:03:21;;;;;;;8.30;2.97;;;13.10;99.90;;;13.53;78.99;100250.09;5098149;28;20563;-83
2023/10/23 00:05:48;;;;;;;6.95;2.90;;;13.10;99.90;;;13.51;79.08;100257.56;5099510;28;20123;-83
2023/10/23 00:08:16;;;;;;;6.30;2.70;;;13.10;99.90;;;13.53;79.01;100266.19;5097911;28;20051;-83
2023/10/23 00:10:44;;;;;;;6.70;2.67;;;13.10;99.90;;;13.50;79.17;100256.75;5097766;28;20044;-83
2023/10/23 00:13:12;;;;;;;6.70;2.92;;;13.10;99.90;;;13.50;79.56;100267.47;5097620;28;20047;-83
2023/10/23 00:15:42;;;;;;;8.38;2.92;;;13.10;99.90;;;13.53;79.53;100263.50;5099678;28;20048;-83
2023/10/23 00:18:10;;;;;;;5.72;2.95;;;13.10;99.90;;;13.54;79.55;100275.84;5099555;28;20043;-83
2023/10/23 00:20:37;;;;;;;5.63;2.60;;;13.20;99.90;;;13.53;79.56;100268.88;5091783;28;20070;-83
2023/10/23 00:23:05;;;;;;;6.57;2.60;;;13.20;99.90;;;13.54;79.71;100273.16;5118150;28;20499;-83
2023/10/23 00:25:32;;;;;;;9.07;2.83;;;13.20;99.90;;;13.53;79.57;100261.63;5119311;28;20453;-83
2023/10/23 00:28:00;;;;;;;8.40;2.40;;;13.20;99.90;;;13.53;79.92;100264.31;5117848;28;20055;-83
2023/10/23 00:30:32;;;;;;;6.50;2.70;;;13.20;99.90;;;13.53;79.73;100263.50;5118486;28;20040;-83
2023/10/23 00:33:00;;;;;;;;;;;13.20;99.90;;;13.54;79.84;100267.81;5118875;28;20044;-83
2023/10/23 00:35:28;;;;;;;6.47;2.28;;;13.20;99.90;;;13.49;79.72;100273.88;5118533;28;19920;-83
2023/10/23 00:37:56;;;;;;;7.53;2.50;;;13.20;99.90;;;13.48;79.66;100266.88;5119156;28;20540;-83
2023/10/23 00:40:23;;;;;;;5.15;2.50;;;13.10;99.90;;;13.47;79.42;100267.94;5120657;28;20115;-83
2023/10/23 00:42:51;;;;;;;6.22;2.47;;;13.10;99.90;;;13.47;79.30;100265.25;5103159;28;20101;-83
2023/10/23 00:45:19;;;;;;;5.70;2.42;;;13.10;99.90;;;13.45;79.26;100274.56;5085823;28;20044;-83
2023/10/23 00:47:47;;;;;;;7.28;2.55;;;13.10;99.90;;;13.40;79.07;100262.69;5120585;28;20058;-83
2023/10/23 00:50:16;;;;;;;9.90;2.47;;;13.10;99.90;;;13.37;78.95;100279.25;5118716;28;20040;-83
2023/10/23 00:52:44;;;;;;;5.25;2.08;;;13.00;99.90;;;13.37;78.87;100279.25;5121242;28;20036;-84
2023/10/23 00:55:16;;;;;;;6.43;2.53;;;13.00;99.90;;;13.34;78.70;100285.06;5110573;28;20494;-84
2023/10/23 00:57:44;;;;;;;6.32;2.10;;;13.00;99.90;;;13.32;78.63;100279.16;5050349;28;20105;-83
2023/10/23 01:00:14;;;;;;;8.75;2.53;;;12.90;99.90;;;13.32;78.14;100281.81;5098771;28;20048;-83
2023/10/23 01:02:42;;;;;;;6.70;2.70;;;12.90;99.90;;;13.31;77.83;100277.50;5100479;28;20036;-83
2023/10/23 01:05:09;;;;;;;10.93;2.47;;;12.90;99.90;;;13.27;77.61;100284.34;5098552;28;20457;-83
2023/10/23 01:07:39;;;;;;;7.32;2.20;;;12.90;99.90;;;13.24;77.51;100282.16;5048636;28;20067;-83
2023/10/23 01:10:08;;;;;;;7.93;2.50;;;12.80;99.90;;;13.22;77.45;100286.91;5099768;28;20040;-83
2023/10/23 01:12:37;;;;;;;5.00;2.00;;;12.80;99.90;;;13.20;77.26;100289.00;5098745;28;20040;-83
2023/10/23 01:15:05;;;;;;;4.32;2.22;;;12.80;99.90;;;13.18;76.95;100290.28;5099659;28;20044;-83
2023/10/23 01:17:33;;;;;;;7.03;2.75;;;12.70;99.90;;;13.13;76.73;100281.09;5118599;28;20449;-83
2023/10/23 01:20:00;;;;;;;5.78;2.40;;;12.70;99.90;;;13.11;76.66;100279.69;5103877;28;20073;-83
2023/10/23 01:22:28;;;;;;;5.10;2.40;;;12.60;99.90;;;13.09;76.73;100281.78;5105649;28;20130;-83
2023/10/23 01:24:58;;;;;;;6.95;2.50;;;12.60;99.90;;;13.06;76.25;100276.88;5124765;28;20051;-83
2023/10/23 01:27:27;;;;;;;5.55;2.25;;;12.60;99.90;;;13.04;76.45;100279.81;5107147;28;20036;-83
2023/10/23 01:29:54;;;;;;;4.85;2.20;;;12.50;99.90;;;13.01;76.30;100282.13;5071903;28;20040;-83
2023/10/23 01:32:22;;;;;;;9.23;2.35;;;12.60;99.90;;;13.00;76.13;100280.50;5125580;28;20073;-83
2023/10/23 01:34:49;;;;;;;6.40;2.20;;;12.60;99.90;;;12.99;75.77;100278.88;5123337;28;20100;-83
2023/10/23 01:37:18;;;;;;;4.78;2.10;;;12.50;99.90;;;12.97;75.68;100286.31;5122632;28;20040;-83
2023/10/23 01:39:46;;;;;;;8.32;2.40;;;12.50;99.90;;;12.95;75.59;100283.06;5123493;28;20085;-83
2023/10/23 01:42:14;;;;;;;5.03;2.20;;;12.50;99.90;;;12.91;75.67;100279.19;5122877;28;20044;-83
2023/10/23 01:44:43;;;;;;;6.07;2.20;;;12.40;99.90;;;12.89;75.79;100288.28;5122986;28;20079;-83
2023/10/23 01:47:11;;;;;;;5.05;2.33;;;12.40;99.90;;;12.89;75.77;100282.13;5105620;28;20134;-83
2023/10/23 01:49:41;;;;;;;9.77;2.97;;;12.40;99.90;;;12.87;75.89;100285.00;5104945;28;20112;-83
2023/10/23 01:52:08;;;;;;;6.72;2.55;;;12.40;99.90;;;12.84;75.84;100288.16;5123080;28;20043;-83
2023/10/23 01:54:36;;;;;;;7.30;2.40;;;12.40;99.90;;;12.83;75.43;100286.53;5128952;27;20040;-83
2023/10/23 01:57:05;;;;;;;6.30;2.30;;;12.30;99.90;;;12.80;75.50;100283.50;5101795;28;20115;-83
2023/10/23 01:59:33;;;;;;;7.72;2.20;;;12.30;99.90;;;12.78;75.49;100278.34;5085764;28;20051;-83
2023/10/23 02:02:02;;;;;;;10.25;2.95;;;12.30;99.90;;;12.79;75.36;100281.88;5102046;28;20050;-83
2023/10/23 02:04:30;;;;;;;5.97;2.20;;;12.30;99.90;;;12.74;75.13;100277.22;5104178;28;20064;-83
2023/10/23 02:06:58;;;;;;;5.22;2.40;;;12.20;99.90;;;12.70;75.21;100283.25;5102311;28;20044;-83
2023/10/23 02:09:30;;;;;;;9.10;2.67;;;12.20;99.90;;;12.69;75.19;100281.59;5102581;28;20052;-83
2023/10/23 02:11:58;;;;;;;7.65;2.33;;;12.20;99.90;;;12.66;74.78;100282.88;5102588;28;20058;-83
2023/10/23 02:14:25;;;;;;;7.47;2.22;;;12.10;99.90;;;12.63;74.89;100283.31;5102283;28;20044;-83
2023/10/23 02:16:53;;;;;;;5.07;2.20;;;12.10;99.90;;;12.62;74.43;100289.72;5103108;28;20036;-83
2023/10/23 02:19:22;;;;;;;6.00;2.35;;;12.10;99.90;;;12.59;74.27;100285.66;5102070;28;20032;-83
2023/10/23 02:21:50;;;;;;;4.53;2.17;;;12.10;99.90;;;12.56;74.23;100285.31;5102292;28;20461;-83
2023/10/23 02:24:18;;;;;;;6.20;2.42;;;12.00;99.90;;;12.53;74.03;100299.13;5101928;28;20071;-83
2023/10/23 02:26:45;;;;;;;5.55;2.20;;;12.00;99.90;;;12.50;74.15;100302.28;5101519;28;20105;-83
2023/10/23 02:29:13;;;;;;;4.20;2.15;;;12.00;99.90;;;12.47;74.11;100305.41;5101617;28;20070;-83
2023/10/23 02:31:40;;;;;;;5.13;2.70;;;12.00;99.90;;;12.44;74.20;100303.97;5102132;28;20044;-83
2023/10/23 02:34:08;;;;;;;7.70;2.70;;;11.90;99.90;;;12.41;74.06;100307.13;5101616;28;20459;-83
2023/10/23 02:36:37;;;;;;;8.55;2.42;;;11.90;99.90;;;12.38;73.96;100303.03;5100452;28;20044;-83
2023/10/23 02:39:06;;;;;;;8.07;2.60;;;11.90;99.90;;;12.38;74.22;100305.69;5100464;28;20112;-83
2023/10/23 02:41:33;;;;;;;5.80;2.20;;;11.90;99.90;;;12.38;74.13;100308.38;5083816;28;20066;-83
2023/10/23 02:44:01;;;;;;;6.55;2.80;;;11.90;99.90;;;12.38;74.34;100297.69;5101517;28;20044;-83
2023/10/23 02:46:29;;;;;;;6.68;2.53;;;11.90;99.90;;;12.39;74.40;100298.50;5100813;28;20093;-83
2023/10/23 02:48:56;;;;;;;3.78;2.20;;;11.90;99.90;;;12.38;74.34;100299.53;5100951;28;20048;-83
2023/10/23 02:51:24;;;;;;;7.43;2.70;;;11.90;99.90;;;12.35;74.34;100298.16;5099646;28;20131;-83
2023/10/23 02:53:53;;;;;;;6.18;2.45;;;11.90;99.90;;;12.34;74.28;100299.16;5082972;28;20075;-83
2023/10/23 02:56:20;;;;;;;5.75;2.20;;;11.90;99.90;;;12.33;74.18;100310.91;5099534;28;20052;-83
2023/10/23 02:58:48;;;;;;;12.63;2.75;;;11.90;99.90;;;12.32;73.94;100306.63;5098992;28;20449;-83
2023/10/23 03:01:17;;;;;;;5.38;2.33;;;11.80;99.90;;;12.32;74.20;100303.13;5099615;28;20048;-83
2023/10/23 03:03:45;;;;;;;8.05;2.50;;;11.80;99.90;;;12.31;74.27;100313.00;5101365;28;20036;-83
2023/10/23 03:06:12;;;;;;;4.10;2.38;;;11.80;99.90;;;12.31;74.25;100312.19;5100013;28;20495;-83
2023/10/23 03:08:40;;;;;;;4.68;2.60;;;11.80;99.90;;;12.30;73.94;100314.06;5101113;28;20051;-83
2023/10/23 03:11:09;;;;;;;4.75;2.35;;;11.80;99.90;;;12.29;73.88;100312.41;5099913;28;20067;-83
2023/10/23 03:13:40;;;;;;;7.18;2.22;;;11.70;99.90;;;12.25;73.85;100313.09;5119283;28;20496;-83
2023/10/23 03:16:08;;;;;;;7.10;2.35;;;11.70;99.90;;;12.25;73.92;100310.41;5121738;28;20040;-83
2023/10/23 03:18:36;;;;;;;4.88;2.55;;;11.70;99.90;;;12.24;73.96;100314.13;5117645;28;20042;-84
2023/10/23 03:21:04;;;;;;;6.13;2.70;;;11.70;99.90;;;12.23;73.72;100316.00;5119499;28;20070;-84
2023/10/23 03:23:32;;;;;;;6.47;2.30;;;11.70;99.90;;;12.21;73.55;100320.75;5084761;28;20086;-83
2023/10/23 03:26:02;;;;;;;5.70;2.60;;;11.70;99.90;;;12.16;73.60;100323.28;5119630;28;20536;-90
2023/10/23 03:28:33;;;;;;;6.03;2.53;;;11.70;99.90;;;12.15;73.54;100318.16;5101319;28;20410;-82
2023/10/23 03:31:03;;;;;;;6.38;2.30;;;11.60;99.90;;;12.09;73.32;100309.19;5073710;28;20044;-86
2023/10/23 03:33:32;;;;;;;4.10;2.40;;;11.60;99.90;;;12.06;73.20;100306.97;5090926;28;20135;-86
2023/10/23 03:36:00;;;;;;;6.93;2.63;;;11.50;99.90;;;12.01;73.48;100307.66;5073347;28;20455;-85
2023/10/23 03:38:27;;;;;;;6.30;2.65;;;11.50;99.90;;;12.02;73.43;100308.47;5073148;28;20045;-86
2023/10/23 03:40:59;;;;;;;9.40;2.60;;;11.50;99.90;;;11.99;72.80;100307.03;5072439;28;20127;-85
2023/10/23 03:43:27;;;;;;;5.05;2.50;;;11.50;99.90;;;11.98;72.97;100317.97;5031546;28;20416;-84
2023/10/23 03:45:56;;;;;;;7.30;2.60;;;11.40;99.90;;;11.97;72.63;100317.16;5074306;28;20040;-85
2023/10/23 03:48:23;;;;;;;5.82;2.53;;;11.40;99.90;;;11.94;72.67;100311.44;5072990;28;20044;-85
2023/10/23 03:50:51;;;;;;;6.13;2.85;;;11.40;99.90;;;11.93;72.93;100323.16;5072615;28;20041;-85
2023/10/23 03:53:19;;;;;;;9.05;3.15;;;11.40;99.90;;;11.91;72.82;100322.56;5112405;28;20067;-85
2023/10/23 03:55:46;;;;;;;4.78;2.40;;;11.40;99.90;;;11.86;72.95;100317.91;5114297;28;20105;-86
2023/10/23 03:58:14;;;;;;;6.68;2.67;;;11.30;99.90;;;11.84;72.77;100315.44;5114025;28;20035;-84
2023/10/23 04:00:41;;;;;;;7.10;2.40;;;11.30;99.90;;;11.77;72.71;100309.34;5115115;28;20036;-85
2023/10/23 04:03:11;;;;;;;4.82;2.28;;;11.30;99.90;;;11.75;73.03;100314.06;5080979;28;20050;-85
2023/10/23 04:05:41;;;;;;;4.85;2.40;;;11.30;99.90;;;11.76;72.86;100314.88;5116901;28;20059;-84
2023/10/23 04:08:08;;;;;;;5.50;2.50;;;11.20;99.90;;;11.74;72.62;100319.63;5067235;28;20077;-83
2023/10/23 04:10:36;;;;;;;6.57;3.00;;;11.20;99.90;;;11.72;73.01;100319.88;5118128;28;20123;-84
2023/10/23 04:13:04;;;;;;;5.30;2.50;;;11.20;99.90;;;11.71;73.31;100325.41;5117889;28;20526;-84
2023/10/23 04:15:31;;;;;;;5.75;2.83;;;11.20;99.90;;;11.71;73.37;100328.09;5116854;28;20057;-84
2023/10/23 04:17:59;;;;;;;4.82;2.90;;;11.20;99.90;;;11.70;72.97;100323.78;5114922;28;20039;-84
2023/10/23 04:20:28;;;;;;;4.38;2.47;;;11.20;99.90;;;11.68;72.73;100326.69;5114300;28;20040;-83
2023/10/23 04:22:56;;;;;;;5.68;2.60;;;11.20;99.90;;;11.64;72.45;100322.00;5115747;28;20043;-82
2023/10/23 04:25:22;;;;;;;4.43;2.40;;;11.10;99.90;;;11.60;72.65;100321.63;5094368;28;20820;-82
2023/10/23 04:27:51;;;;;;;4.60;2.70;;;11.10;99.90;;;11.57;72.64;100320.25;5098004;28;20036;-83
2023/10/23 04:30:19;;;;;;;7.60;2.70;;;11.10;99.90;;;11.57;72.62;100322.91;5079655;28;20044;-86
2023/10/23 04:32:46;;;;;;;5.70;2.45;;;11.10;99.90;;;11.56;72.17;100328.44;5095496;28;20048;-83
2023/10/23 04:35:14;;;;;;;9.13;2.58;;;11.10;99.90;;;11.53;72.05;100324.38;5102496;28;20105;-83
2023/10/23 04:37:43;;;;;;;4.15;2.22;;;11.10;99.90;;;11.50;71.85;100335.50;5102186;28;20092;-82
2023/10/23 04:40:12;;;;;;;5.18;2.55;;;11.00;99.90;;;11.50;71.95;100337.34;5105740;28;20154;-82
2023/10/23 04:42:39;;;;;;;6.28;2.60;;;11.00;99.90;;;11.46;71.59;100336.16;5104284;28;20048;-83
2023/10/23 04:45:09;;;;;;;7.10;2.60;;;10.90;99.90;;;11.41;71.84;100336.00;5104059;28;20044;-83
2023/10/23 04:47:37;;;;;;;8.05;2.40;;;10.90;99.90;;;11.39;71.81;100330.88;5103070;28;20059;-82
2023/10/23 04:50:06;;;;;;;4.93;2.60;;;10.90;99.90;;;11.38;71.82;100339.13;5053379;28;20040;-82
2023/10/23 04:52:33;;;;;;;5.50;2.47;;;10.90;99.90;;;11.40;72.22;100337.84;5109232;28;20060;-82
2023/10/23 04:55:02;;;;;;;8.35;3.08;;;10.90;99.90;;;11.38;71.89;100337.28;5106558;28;20057;-83
2023/10/23 04:57:30;;;;;;;4.95;2.50;;;10.80;99.90;;;11.33;71.98;100332.59;5108838;28;20382;-83
2023/10/23 04:59:58;;;;;;;5.88;2.53;;;10.80;99.90;;;11.31;71.92;100334.63;5108058;28;20040;-82
2023/10/23 05:02:26;;;;;;;6.10;2.70;;;10.90;99.90;;;11.32;71.71;100338.13;5107452;28;20039;-82
2023/10/23 05:04:54;;;;;;;10.32;2.80;;;10.80;99.90;;;11.31;71.68;100334.63;5124037;28;20101;-82
2023/10/23 05:07:21;;;;;;;6.60;2.60;;;10.80;99.90;;;11.34;72.47;100336.88;5108654;28;20060;-82
2023/10/23 05:09:48;;;;;;;11.43;3.25;;;10.90;99.90;;;11.35;72.67;100335.84;5091091;28;20043;-82
2023/10/23 05:12:18;;;;;;;5.65;2.90;;;10.90;99.90;;;11.31;72.10;100329.31;5108583;28;20070;-82
2023/10/23 05:14:45;;;;;;;6.63;3.00;;;10.90;99.90;;;11.33;72.09;100334.44;5106332;28;20044;-82
2023/10/23 05:17:15;;;;;;;15.30;6.47;;;10.90;99.90;;;11.35;72.63;100333.16;5108560;28;20048;-82
2023/10/23 05:22:28;;;;;;;7.97;4.18;;;10.90;99.90;;;11.23;71.80;100336.78;5121975;28;20415;-84
2023/10/23 05:24:56;;;;;;;7.05;3.58;;;10.80;99.90;;;11.19;71.60;100336.41;5107823;28;20047;-83
2023/10/23 05:27:25;;;;;;;12.88;4.18;;;10.80;99.90;;;11.17;71.41;100327.78;5072437;28;20052;-83
2023/10/23 05:29:52;;;;;;;7.30;3.60;;;10.70;99.90;;;11.15;71.51;100335.19;5109460;28;20120;-82
2023/10/23 05:32:20;;;;;;;6.15;3.75;;;10.70;99.90;;;11.11;71.39;100334.00;5090636;28;20457;-82
2023/10/23 05:34:48;;;;;;;10.20;3.83;;;10.70;99.90;;;11.10;71.42;100332.38;5106628;28;20461;-82
2023/10/23 05:37:15;;;;;;;8.30;3.83;;;10.60;99.90;;;11.09;71.44;100344.09;5106398;28;20083;-82
2023/10/23 05:39:43;;;;;;;14.60;4.20;;;10.60;99.90;;;11.08;71.46;100342.47;5105659;28;20046;-82
2023/10/23 05:42:10;;;;;;;7.00;4.00;;;10.60;99.90;;;11.03;71.63;100335.09;5105102;28;20115;-82
2023/10/23 05:44:39;;;;;;;9.55;4.20;;;10.50;99.90;;;10.98;71.67;100332.28;5105156;28;20048;-82
2023/10/23 05:47:07;;;;;;;6.95;4.35;;;10.50;99.90;;;10.95;71.65;100342.56;5088510;28;20135;-82
2023/10/23 05:49:35;;;;;;;7.35;4.03;;;10.50;99.90;;;10.94;71.46;100340.94;5107598;28;20072;-82
2023/10/23 05:52:03;;;;;;;9.25;4.15;;;10.40;99.90;;;10.96;71.24;100346.84;5107178;28;20040;-82
2023/10/23 05:54:32;;;;;;;6.88;3.85;;;10.50;99.90;;;10.95;71.26;100331.88;5105762;28;20056;-82
2023/10/23 05:56:59;;;;;;;7.05;4.10;;;10.50;99.90;;;10.95;71.12;100339.88;5104999;28;20052;-82
2023/10/23 05:59:27;;;;;;;7.60;3.70;;;10.50;99.90;;;10.93;71.28;100344.59;5107244;28;20430;-82
2023/10/23 06:01:56;;;;;;;6.78;4.10;;;10.40;99.90;;;10.92;71.25;100341.13;5106888;28;20112;-83
2023/10/23 06:04:24;;;;;;;8.43;4.03;;;10.40;99.90;;;10.92;71.31;100349.13;5088513;28;20555;-83
2023/10/23 06:06:51;;;;;;;8.48;4.53;;;10.40;99.90;;;10.91;71.35;100346.69;5106608;28;20040;-83
2023/10/23 06:09:19;;;;;;;8.02;3.75;;;10.40;99.90;;;10.89;71.27;100340.75;5088409;28;20066;-82
2023/10/23 06:11:47;;;;;;;7.90;4.60;;;10.40;99.90;;;10.94;71.80;100346.25;5104675;28;20044;-82
2023/10/23 06:14:14;;;;;;;10.48;5.13;;;10.40;99.90;;;10.93;71.73;100350.78;5088358;28;20051;-82
2023/10/23 06:16:42;;;;;;;8.73;4.97;;;10.40;99.90;;;10.92;71.64;100348.31;5107150;28;20055;-82
2023/10/23 06:19:14;;;;;;;11.05;4.28;;;10.40;99.90;;;10.86;71.50;100352.66;5106980;28;20044;-82
2023/10/23 06:21:41;;;;;;;10.05;4.70;;;10.40;99.90;;;10.83;71.83;100350.41;5106347;28;20066;-82
2023/10/23 06:24:09;;;;;;;9.80;4.90;;;10.40;99.90;;;10.84;71.67;100354.75;5106361;28;20552;-82
2023/10/23 06:26:37;;;;;;;8.15;4.85;;;10.40;99.90;;;10.84;71.84;100360.09;5106514;28;20040;-83
2023/10/23 06:29:04;;;;;;;9.30;4.90;;;10.40;99.90;;;10.82;71.81;100357.59;5072370;28;20070;-82
2023/10/23 06:31:32;;;;;;;10.35;4.68;;;10.30;99.90;;;10.83;71.72;100359.25;5107200;28;20047;-82
2023/10/23 06:33:59;;;;;;;12.65;4.97;;;10.30;99.90;;;10.83;71.80;100353.09;5088401;28;20119;-82
2023/10/23 06:36:30;;;;;;;10.77;4.90;;;10.30;99.90;;;10.82;71.73;100359.47;5108025;28;20048;-82
2023/10/23 06:38:58;;;;;;;9.20;4.72;;;10.30;99.90;;;10.80;71.94;100353.53;5107185;28;20506;-82
2023/10/23 06:41:26;;;;;;;8.18;4.40;;;10.30;99.90;;;10.79;71.87;100357.25;5089234;28;20055;-82
2023/10/23 06:43:54;;;;;;;9.02;5.00;;;10.30;99.90;;;10.77;71.75;100362.78;5071969;28;20044;-82
2023/10/23 06:46:21;;;;;;;8.38;4.80;;;10.30;99.90;;;10.79;71.98;100362.56;5105196;28;20040;-82
2023/10/23 06:48:48;;;;;;;7.68;4.47;;;10.30;99.90;;;10.80;72.15;100364.22;5106597;28;20036;-82
2023/10/23 06:51:15;;;;;;;9.55;4.00;;;10.30;99.90;;;10.80;72.54;100358.88;5107266;28;20159;-82
2023/10/23 06:53:44;;;;;;;8.90;4.60;;;10.30;99.90;;;10.80;72.41;100359.69;5106976;28;20492;-82
2023/10/23 06:56:12;;;;;;;9.23;4.18;;;10.30;99.90;;;10.82;72.54;100356.78;5105226;28;20052;-82
2023/10/23 06:58:40;;;;;;;8.27;4.57;;;10.40;99.90;;;10.83;72.87;100361.94;5106033;28;20036;-82
2023/10/23 07:01:09;;;;;;;10.98;4.40;;;10.40;99.90;;;10.84;73.31;100357.41;5088102;28;20062;-82
2023/10/23 07:03:37;;;;;;;7.72;4.45;;;10.40;99.90;;;10.86;73.29;100351.84;5106245;28;20048;-82
2023/10/23 07:06:06;;;;;;;12.27;4.65;;;10.40;99.90;;;10.87;73.43;100356.16;5105541;28;20129;-82
2023/10/23 07:08:39;;;;;;;9.13;4.00;;;10.50;99.90;;;10.88;73.58;100355.09;5104876;28;20093;-82
2023/10/23 07:11:15;;;;;;;9.75;3.90;;;10.50;99.90;;;10.93;73.62;100356.13;5104987;28;20107;-82
2023/10/23 07:13:43;;;;;;;7.68;4.13;;;10.50;99.90;;;10.98;73.75;100350.09;5104657;28;20044;-82
2023/10/23 07:16:11;;;;;;;6.25;4.00;;;10.60;99.90;;;11.04;73.86;100358.09;5105077;28;20048;-82
2023/10/23 07:18:39;;;;;;;8.23;4.45;;;10.60;99.90;;;11.11;74.27;100358.03;5088051;28;20044;-82
2023/10/23 07:21:06;;;;;;;8.35;4.63;;;10.70;99.90;;;11.15;74.12;100351.22;5104614;28;20071;-82
2023/10/23 07:23:33;;;;;;;11.10;4.97;;;10.70;99.90;;;11.23;74.28;100363.50;5104750;28;20044;-82
2023/10/23 07:26:10;;;;;;;12.98;5.07;;;10.80;99.90;;;11.29;74.72;100354.59;5106085;28;20048;-82
2023/10/23 07:28:39;;;;;;;17.40;5.40;;;10.90;99.90;;;11.35;74.87;100353.72;5105364;28;20515;-82
2023/10/23 07:31:08;;;;;;;18.13;5.65;;;10.90;99.90;;;11.42;75.04;100349.16;5106646;28;20044;-82
2023/10/23 07:33:36;;;;;;;21.52;5.70;;;11.10;99.90;;;11.48;75.13;100355.47;5106456;28;20043;-82
2023/10/23 07:36:05;;;;;;;19.10;5.65;;;11.10;99.90;;;11.54;75.62;100357.25;5103288;28;20082;-82
2023/10/23 07:38:34;;;;;;;16.50;5.80;;;11.20;99.90;;;11.59;75.60;100352.06;5105650;28;20052;-82
2023/10/23 07:41:03;;;;;;;16.23;5.68;;;11.30;99.90;;;11.63;75.97;100358.59;5104085;28;20067;-82
2023/10/23 07:43:30;;;;;;;15.65;6.13;;;11.30;99.90;;;11.69;76.16;100351.56;5105174;28;20048;-82
2023/10/23 07:46:05;;;;;;;10.10;5.38;;;11.40;99.90;;;11.72;76.25;100351.94;5105413;28;20052;-82
2023/10/23 07:48:33;;;;;;;16.33;6.20;;;11.40;99.90;;;11.75;76.04;100351.47;5103280;28;20419;-82
2023/10/23 07:51:03;;;;;;;14.70;6.15;;;11.50;99.90;;;11.80;76.19;100345.47;5103367;28;20050;-82
2023/10/23 07:53:32;;;;;;;10.27;5.80;;;11.50;99.90;;;11.88;76.11;100345.22;5102878;28;20055;-82
2023/10/23 07:56:00;;;;;;;16.40;6.88;;;11.60;99.90;;;11.92;76.42;100337.56;5102525;28;20036;-82
2023/10/23 07:58:28;;;;;;;13.52;6.60;;;11.60;99.90;;;11.96;76.55;100342.25;5102838;28;20056;-82
2023/10/23 08:01:05;;;;;;;16.02;5.93;;;11.70;99.90;;;11.99;77.11;100343.66;5104274;28;20107;-82
2023/10/23 08:03:34;;;;;;;15.85;6.88;;;11.70;99.90;;;12.03;76.97;100342.97;5104633;28;20075;-82
2023/10/23 08:06:03;;;;;;;19.38;6.97;;;11.80;99.90;;;12.07;76.84;100346.03;5104517;28;20040;-82
2023/10/23 08:08:31;;;;;;;19.92;6.90;;;11.80;99.90;;;12.09;77.44;100339.41;5086582;28;20048;-82
2023/10/23 08:10:59;;;;;;;17.40;7.75;;;11.90;99.90;;;12.15;77.37;100344.88;5086451;28;20107;-82
2023/10/23 08:13:26;;;;;;;18.27;7.10;;;11.90;99.90;;;12.18;77.87;100342.59;5103972;28;20395;-82
2023/10/23 08:15:54;;;;;;;10.65;6.40;;;11.90;99.90;;;12.21;77.95;100350.16;5104726;28;20047;-82
2023/10/23 08:18:23;;;;;;;10.30;6.38;;;12.00;99.90;;;12.24;77.63;100338.19;5105231;28;20044;-82
2023/10/23 08:20:51;;;;;;;14.75;6.68;;;12.00;99.90;;;12.28;77.59;100342.88;5084266;28;20128;-83
2023/10/23 08:23:19;;;;;;;13.68;7.28;;;12.10;99.90;;;12.31;78.51;100342.44;5103401;28;20055;-83
2023/10/23 08:25:47;;;;;;;12.60;6.43;;;12.10;99.90;;;12.31;78.60;100334.41;5084937;28;20086;-83
2023/10/23 08:28:14;;;;;;;12.52;6.63;;;12.20;99.90;;;12.35;78.38;100329.44;5101298;28;20050;-83
2023/10/23 08:30:42;;;;;;;12.05;6.28;;;12.20;99.90;;;12.39;78.61;100333.25;5103630;28;20051;-83
2023/10/23 08:33:10;;;;;;;13.00;6.85;;;12.20;99.90;;;12.43;79.05;100336.31;5104244;28;20051;-83
2023/10/23 08:35:40;;;;;;;12.05;6.95;;;12.30;99.90;;;12.45;78.55;100332.38;5102939;28;20075;-83
2023/10/23 08:38:07;;;;;;;16.17;7.25;;;12.30;99.90;;;12.48;78.74;100331.09;5104113;28;20056;-83
2023/10/23 08:40:35;;;;;;;13.70;7.10;;;12.30;99.90;;;12.48;79.77;100341.78;5101624;28;20066;-83
2023/10/23 08:43:03;;;;;;;13.85;7.47;;;12.30;99.90;;;12.51;79.50;100333.31;5102294;28;20051;-83
2023/10/23 08:45:30;;;;;;;15.15;7.30;;;12.40;99.90;;;12.55;79.51;100334.50;5102411;28;20108;-83
2023/10/23 08:47:58;;;;;;;14.45;8.40;;;12.40;99.90;;;12.59;78.78;100332.97;5102992;28;20072;-83
2023/10/23 08:50:27;;;;;;;16.67;7.70;;;12.50;99.90;;;12.59;78.94;100331.16;5102258;28;20032;-83
2023/10/23 08:53:04;;;;;;;16.60;9.00;;;12.50;99.90;;;12.61;79.08;100333.59;5101108;28;20059;-84
2023/10/23 08:55:32;;;;;;;16.15;8.30;;;12.50;99.90;;;12.63;78.91;100334.97;5098612;28;20056;-83
2023/10/23 08:58:04;;;;;;;14.02;7.72;;;12.50;99.90;;;12.65;79.73;100340.13;5101180;28;20048;-83
2023/10/23 09:00:33;;;;;;;14.10;8.32;;;12.50;99.90;;;12.66;79.55;100336.41;5102392;28;20063;-83
2023/10/23 09:03:03;;;;;;;14.98;7.88;;;12.50;99.90;;;12.68;80.06;100334.28;5100838;28;20042;-83
2023/10/23 09:05:30;;;;;;;13.57;7.55;;;12.60;99.90;;;12.70;80.31;100336.75;5100686;28;20052;-83
2023/10/23 09:07:59;;;;;;;13.23;8.20;;;12.60;99.90;;;12.73;79.81;100334.44;5102216;28;20515;-83
2023/10/23 09:10:27;;;;;;;13.82;7.68;;;12.60;99.90;;;12.74;79.96;100336.09;5085250;28;20135;-83
2023/10/23 09:12:57;;;;;;;14.73;8.30;;;12.70;99.90;;;12.76;80.58;100333.97;5103884;28;20090;-83
2023/10/23 09:15:25;;;;;;;14.75;7.72;;;12.70;99.90;;;12.78;80.49;100329.19;5103540;28;20066;-83
2023/10/23 09:17:54;;;;;;;17.83;7.38;;;12.70;99.90;;;12.80;80.34;100324.44;5104838;28;20114;-83
2023/10/23 09:20:26;;;;;;;16.90;6.82;;;12.70;99.90;;;12.83;80.89;100326.69;5104293;28;20491;-83
2023/10/23 09:22:56;;;;;;;15.30;7.78;;;12.80;99.90;;;12.87;80.90;100322.47;5103041;28;20051;-83
2023/10/23 09:25:26;;;;;;;11.75;7.70;;;12.80;99.90;;;12.91;80.97;100320.16;5105195;28;20040;-83
2023/10/23 09:27:54;;;;;;;15.95;7.32;;;12.80;99.90;;;12.93;80.69;100322.59;5096434;28;20103;-84
2023/10/23 09:30:22;;;;;;;13.43;8.13;;;12.90;99.90;;;12.94;80.50;100321.56;5077125;28;20427;-84
2023/10/23 09:32:54;;;;;;;12.38;7.38;;;12.90;99.90;;;12.96;80.92;100320.28;5098794;28;20036;-83
2023/10/23 09:35:25;;;;;;;13.65;7.07;;;12.90;99.90;;;12.97;80.10;100316.56;5081927;28;20074;-83
2023/10/23 09:37:53;;;;;;;14.90;7.43;;;13.00;99.90;;;12.99;80.20;100317.16;5102002;28;20048;-83
2023/10/23 09:40:20;;;;;;;13.38;7.45;;;13.00;99.90;;;13.02;80.10;100314.00;5105645;28;20568;-83
2023/10/23 09:42:50;;;;;;;12.80;7.80;;;13.00;99.90;;;13.04;79.92;100314.59;5102177;28;20048;-84
2023/10/23 09:45:17;;;;;;;18.98;8.73;;;13.00;99.90;;;13.05;79.89;100313.56;5084172;28;20078;-84
2023/10/23 09:47:48;;;;;;;17.15;9.18;;;13.00;99.90;;;13.08;79.35;100306.94;5100218;28;20519;-84
2023/10/23 09:50:16;;;;;;;13.85;8.60;;;13.10;99.90;;;13.09;79.50;100301.34;5098603;28;20044;-84
2023/10/23 09:52:45;;;;;;;16.00;8.43;;;13.10;99.90;;;13.12;79.35;100300.03;5098816;28;20051;-85
2023/10/23 09:55:14;;;;;;;13.98;8.00;;;13.10;99.90;;;13.15;78.74;100307.63;5098745;28;20048;-85
2023/10/23 09:57:51;;;;;;;18.05;8.48;;;13.10;99.90;;;13.17;78.67;100305.50;5082319;28;20090;-85
2023/10/23 10:00:20;;;;;;;16.58;8.18;;;13.10;99.90;;;13.16;78.91;100306.56;5103059;28;20051;-84
2023/10/23 10:02:54;;;;;;;15.73;8.23;;;13.20;99.90;;;13.17;78.33;100300.16;5088651;28;20439;-83
2023/10/23 10:05:31;;;;;;;13.02;8.27;;;13.20;99.90;;;13.21;78.25;100297.84;5103446;28;20048;-84
2023/10/23 10:08:03;;;;;;;13.13;7.53;;;13.20;99.90;;;13.22;77.92;100292.28;5104994;28;20047;-83
2023/10/23 10:10:32;;;;;;;13.55;7.30;;;13.20;99.90;;;13.22;77.89;100297.63;5105155;28;20048;-84
2023/10/23 10:13:00;;;;;;;12.85;7.50;;;13.20;99.90;;;13.24;78.06;100290.19;5103562;28;20044;-83
2023/10/23 10:15:31;;;;;;;10.70;6.45;;;13.20;99.90;;;13.24;78.05;100287.50;5105636;28;20066;-83
2023/10/23 10:17:58;;;;;;;;;;;13.30;99.90;;;13.26;77.14;100288.09;5106667;28;20052;-81